createdAt,value
2024-05-09T00:00:46.343Z,0.00
2024-05-09T00:01:45.726Z,0.00
2024-05-09T00:02:45.629Z,0.00
2024-05-09T00:04:06.612Z,0.00
2024-05-09T00:04:45.725Z,0.00
2024-05-09T00:05:45.656Z,0.00
2024-05-09T00:06:45.509Z,0.00
2024-05-09T00:07:45.573Z,0.00
2024-05-09T00:08:45.511Z,0.00
2024-05-09T00:10:09.255Z,0.00
2024-05-09T00:10:45.543Z,0.00
2024-05-09T00:11:45.535Z,0.00
2024-05-09T00:12:45.392Z,0.00
2024-05-09T00:13:45.437Z,0.00
2024-05-09T00:14:45.367Z,0.00
2024-05-09T00:16:06.311Z,0.00
2024-05-09T00:16:45.336Z,0.00
2024-05-09T00:17:46.362Z,0.00
2024-05-09T00:18:45.308Z,0.00
2024-05-09T00:19:45.266Z,0.00
2024-05-09T00:20:45.221Z,0.00
2024-05-09T00:22:06.202Z,0.00
2024-05-09T00:22:45.210Z,0.00
2024-05-09T00:23:45.212Z,0.00
2024-05-09T00:24:45.109Z,0.00
2024-05-09T00:25:45.266Z,0.00
2024-05-09T00:26:45.072Z,0.00
2024-05-09T00:28:06.050Z,0.00
2024-05-09T00:28:45.073Z,0.00
2024-05-09T00:29:44.993Z,0.00
2024-05-09T00:30:44.962Z,0.00
2024-05-09T00:31:45.146Z,0.00
2024-05-09T00:32:44.979Z,0.00
2024-05-09T00:34:06.038Z,0.00
2024-05-09T00:34:44.918Z,0.00
2024-05-09T00:35:44.822Z,0.00
2024-05-09T00:36:44.863Z,0.00
2024-05-09T00:37:44.810Z,0.00
2024-05-09T00:38:44.792Z,0.00
2024-05-09T00:40:07.409Z,0.00
2024-05-09T00:40:44.852Z,0.00
2024-05-09T00:41:44.756Z,0.00
2024-05-09T00:42:44.671Z,0.00
2024-05-09T00:43:44.731Z,0.00
2024-05-09T00:44:44.627Z,0.00
2024-05-09T00:46:05.611Z,0.00
2024-05-09T00:46:44.658Z,0.00
2024-05-09T00:47:44.778Z,0.00
2024-05-09T00:48:44.692Z,0.00
2024-05-09T00:49:44.717Z,0.00
2024-05-09T00:50:44.608Z,0.00
2024-05-09T00:52:05.459Z,0.00
2024-05-09T00:52:44.476Z,0.00
2024-05-09T00:53:44.593Z,0.00
2024-05-09T00:54:44.386Z,0.00
2024-05-09T00:55:44.531Z,0.00
2024-05-09T00:56:44.353Z,0.00
2024-05-09T00:58:05.363Z,0.00
2024-05-09T00:58:44.406Z,0.00
2024-05-09T00:59:44.274Z,0.00
2024-05-09T01:00:44.444Z,0.00
2024-05-09T01:01:44.480Z,0.00
2024-05-09T01:02:44.279Z,0.00
2024-05-09T01:04:05.278Z,0.00
2024-05-09T01:04:44.304Z,0.00
2024-05-09T01:05:44.271Z,0.00
2024-05-09T01:06:44.104Z,0.00
2024-05-09T01:07:44.155Z,0.00
2024-05-09T01:08:44.116Z,0.00
2024-05-09T01:10:45.997Z,0.00
2024-05-09T01:11:44.098Z,0.00
2024-05-09T01:12:44.010Z,0.00
2024-05-09T01:13:44.001Z,0.00
2024-05-09T01:14:43.930Z,0.00
2024-05-09T01:16:04.927Z,0.00
2024-05-09T01:16:43.950Z,0.00
2024-05-09T01:17:44.097Z,0.00
2024-05-09T01:18:43.983Z,0.00
2024-05-09T01:19:43.899Z,0.00
2024-05-09T01:20:45.278Z,0.00
2024-05-09T01:22:04.787Z,0.00
2024-05-09T01:22:43.777Z,0.00
2024-05-09T01:23:43.776Z,0.00
2024-05-09T01:24:43.717Z,0.00
2024-05-09T01:25:43.809Z,0.00
2024-05-09T01:26:43.633Z,0.00
2024-05-09T01:28:04.661Z,0.00
2024-05-09T01:28:43.611Z,0.00
2024-05-09T01:29:43.590Z,4.00
2024-05-09T01:30:43.549Z,4.00
2024-05-09T01:31:43.631Z,0.00
2024-05-09T01:32:44.398Z,0.00
2024-05-09T01:34:04.523Z,0.00
2024-05-09T01:34:43.536Z,0.00
2024-05-09T01:35:43.559Z,4.00
2024-05-09T01:36:43.429Z,4.00
2024-05-09T01:37:43.431Z,0.00
2024-05-09T01:38:43.393Z,0.00
2024-05-09T01:40:07.346Z,4.00
2024-05-09T01:40:43.439Z,4.00
2024-05-09T01:41:43.318Z,0.00
2024-05-09T01:42:43.274Z,4.00
2024-05-09T01:43:43.314Z,4.00
2024-05-09T01:44:43.249Z,4.00
2024-05-09T01:46:04.221Z,4.00
2024-05-09T01:46:43.265Z,0.00
2024-05-09T01:47:43.426Z,4.00
2024-05-09T01:48:43.278Z,4.00
2024-05-09T01:49:43.389Z,4.00
2024-05-09T01:50:43.669Z,4.00
2024-05-09T01:52:04.089Z,4.00
2024-05-09T01:52:43.111Z,8.00
2024-05-09T01:53:43.086Z,4.00
2024-05-09T01:54:42.997Z,4.00
2024-05-09T01:55:43.248Z,8.00
2024-05-09T01:56:42.965Z,8.00
2024-05-09T01:58:03.947Z,8.00
2024-05-09T01:58:42.928Z,8.00
2024-05-09T01:59:42.885Z,8.00
2024-05-09T02:00:43.688Z,8.00
2024-05-09T02:01:56.172Z,12.00
2024-05-09T02:02:42.934Z,8.00
2024-05-09T02:04:04.063Z,12.00
2024-05-09T02:04:42.875Z,12.00
2024-05-09T02:05:42.971Z,12.00
2024-05-09T02:06:42.761Z,16.00
2024-05-09T02:07:42.786Z,16.00
2024-05-09T02:08:42.733Z,16.00
2024-05-09T02:10:06.460Z,16.00
2024-05-09T02:10:42.674Z,16.00
2024-05-09T02:11:42.646Z,20.00
2024-05-09T02:12:42.607Z,20.00
2024-05-09T02:13:42.641Z,20.00
2024-05-09T02:14:42.571Z,24.00
2024-05-09T02:16:03.504Z,24.00
2024-05-09T02:16:42.746Z,24.00
2024-05-09T02:17:44.541Z,24.00
2024-05-09T02:18:42.546Z,28.00
2024-05-09T02:19:42.462Z,28.00
2024-05-09T02:20:43.361Z,28.00
2024-05-09T02:22:03.396Z,28.00
2024-05-09T02:22:42.378Z,28.00
2024-05-09T02:23:42.453Z,32.00
2024-05-09T02:24:43.249Z,32.00
2024-05-09T02:25:42.327Z,36.00
2024-05-09T02:26:42.278Z,36.00
2024-05-09T02:28:03.249Z,36.00
2024-05-09T02:28:42.261Z,40.00
2024-05-09T02:29:42.233Z,40.00
2024-05-09T02:30:42.716Z,44.00
2024-05-09T02:31:42.775Z,44.00
2024-05-09T02:32:42.262Z,44.00
2024-05-09T02:34:03.408Z,44.00
2024-05-09T02:34:42.099Z,48.00
2024-05-09T02:35:42.349Z,44.00
2024-05-09T02:36:42.044Z,44.00
2024-05-09T02:37:42.044Z,48.00
2024-05-09T02:38:42.115Z,48.00
2024-05-09T02:40:03.416Z,52.00
2024-05-09T02:40:41.964Z,52.00
2024-05-09T02:41:41.927Z,52.00
2024-05-09T02:42:41.908Z,52.00
2024-05-09T02:43:41.881Z,52.00
2024-05-09T02:44:41.887Z,52.00
2024-05-09T02:46:02.841Z,52.00
2024-05-09T02:46:41.817Z,52.00
2024-05-09T02:47:41.884Z,52.00
2024-05-09T02:48:41.837Z,52.00
2024-05-09T02:49:41.731Z,52.00
2024-05-09T02:50:42.110Z,56.00
2024-05-09T02:52:02.706Z,52.00
2024-05-09T02:52:41.697Z,52.00
2024-05-09T02:53:41.675Z,48.00
2024-05-09T02:54:41.655Z,52.00
2024-05-09T02:55:41.921Z,52.00
2024-05-09T02:56:41.670Z,48.00
2024-05-09T02:58:02.607Z,48.00
2024-05-09T02:58:41.536Z,52.00
2024-05-09T02:59:41.524Z,52.00
2024-05-09T03:00:42.841Z,48.00
2024-05-09T03:01:41.607Z,52.00
2024-05-09T03:02:41.603Z,48.00
2024-05-09T03:04:02.603Z,52.00
2024-05-09T03:04:41.436Z,52.00
2024-05-09T03:05:41.701Z,56.00
2024-05-09T03:06:42.280Z,60.00
2024-05-09T03:07:41.338Z,60.00
2024-05-09T03:08:41.380Z,60.00
2024-05-09T03:10:02.277Z,64.00
2024-05-09T03:10:41.306Z,68.00
2024-05-09T03:11:41.400Z,68.00
2024-05-09T03:12:41.269Z,68.00
2024-05-09T03:13:41.793Z,72.00
2024-05-09T03:14:41.191Z,72.00
2024-05-09T03:16:02.163Z,80.00
2024-05-09T03:16:41.136Z,76.00
2024-05-09T03:17:41.420Z,80.00
2024-05-09T03:18:41.233Z,80.00
2024-05-09T03:19:41.063Z,84.00
2024-05-09T03:20:41.806Z,88.00
2024-05-09T03:22:02.011Z,88.00
2024-05-09T03:22:41.017Z,92.00
2024-05-09T03:23:41.105Z,96.00
2024-05-09T03:24:40.975Z,96.00
2024-05-09T03:25:40.996Z,100.00
2024-05-09T03:26:40.994Z,100.00
2024-05-09T03:28:01.898Z,108.00
2024-05-09T03:28:40.859Z,108.00
2024-05-09T03:29:41.796Z,108.00
2024-05-09T03:30:42.979Z,108.00
2024-05-09T03:31:40.861Z,112.00
2024-05-09T03:32:40.947Z,112.00
2024-05-09T03:34:02.462Z,120.00
2024-05-09T03:34:40.733Z,128.00
2024-05-09T03:35:40.836Z,132.00
2024-05-09T03:36:40.697Z,136.00
2024-05-09T03:37:40.656Z,144.00
2024-05-09T03:38:40.691Z,148.00
2024-05-09T03:40:01.634Z,152.00
2024-05-09T03:40:40.598Z,156.00
2024-05-09T03:41:40.616Z,160.00
2024-05-09T03:42:40.586Z,164.00
2024-05-09T03:43:41.288Z,168.00
2024-05-09T03:44:40.596Z,172.00
2024-05-09T03:46:01.489Z,176.00
2024-05-09T03:46:40.469Z,176.00
2024-05-09T03:47:40.722Z,180.00
2024-05-09T03:48:40.564Z,184.00
2024-05-09T03:49:40.658Z,192.00
2024-05-09T03:50:40.559Z,196.00
2024-05-09T03:52:01.384Z,204.00
2024-05-09T03:52:41.291Z,208.00
2024-05-09T03:53:40.451Z,212.00
2024-05-09T03:54:40.303Z,212.00
2024-05-09T03:55:40.259Z,216.00
2024-05-09T03:56:40.446Z,216.00
2024-05-09T03:58:01.217Z,220.00
2024-05-09T03:58:40.189Z,228.00
2024-05-09T03:59:40.239Z,232.00
2024-05-09T04:00:40.552Z,232.00
2024-05-09T04:01:40.238Z,236.00
2024-05-09T04:02:40.153Z,240.00
2024-05-09T04:04:01.108Z,236.00
2024-05-09T04:04:40.202Z,236.00
2024-05-09T04:05:41.091Z,240.00
2024-05-09T04:06:40.017Z,240.00
2024-05-09T04:07:40.053Z,244.00
2024-05-09T04:08:40.819Z,248.00
2024-05-09T04:10:00.982Z,256.00
2024-05-09T04:10:39.958Z,260.00
2024-05-09T04:11:40.035Z,264.00
2024-05-09T04:12:39.916Z,260.00
2024-05-09T04:13:39.866Z,260.00
2024-05-09T04:14:39.903Z,260.00
2024-05-09T04:16:00.817Z,248.00
2024-05-09T04:16:39.799Z,244.00
2024-05-09T04:17:39.957Z,244.00
2024-05-09T04:18:39.901Z,244.00
2024-05-09T04:19:39.854Z,240.00
2024-05-09T04:20:41.137Z,244.00
2024-05-09T04:22:01.282Z,248.00
2024-05-09T04:22:39.691Z,256.00
2024-05-09T04:23:39.773Z,256.00
2024-05-09T04:24:39.661Z,256.00
2024-05-09T04:25:39.610Z,260.00
2024-05-09T04:26:39.631Z,260.00
2024-05-09T04:28:00.596Z,256.00
2024-05-09T04:28:39.582Z,256.00
2024-05-09T04:29:39.559Z,256.00
2024-05-09T04:30:41.364Z,260.00
2024-05-09T04:31:39.471Z,264.00
2024-05-09T04:32:39.603Z,268.00
2024-05-09T04:34:00.546Z,276.00
2024-05-09T04:34:39.452Z,276.00
2024-05-09T04:35:40.361Z,280.00
2024-05-09T04:36:41.706Z,284.00
2024-05-09T04:37:39.354Z,288.00
2024-05-09T04:38:39.447Z,296.00
2024-05-09T04:40:00.344Z,296.00
2024-05-09T04:40:39.352Z,304.00
2024-05-09T04:41:39.329Z,308.00
2024-05-09T04:42:39.234Z,316.00
2024-05-09T04:43:39.225Z,324.00
2024-05-09T04:44:39.255Z,328.00
2024-05-09T04:46:00.198Z,332.00
2024-05-09T04:46:39.786Z,332.00
2024-05-09T04:47:39.237Z,312.00
2024-05-09T04:48:39.147Z,316.00
2024-05-09T04:49:39.144Z,340.00
2024-05-09T04:50:39.858Z,348.00
2024-05-09T04:52:00.042Z,348.00
2024-05-09T04:52:39.029Z,356.00
2024-05-09T04:53:39.129Z,360.00
2024-05-09T04:54:38.981Z,360.00
2024-05-09T04:55:39.235Z,360.00
2024-05-09T04:56:38.992Z,360.00
2024-05-09T04:57:59.950Z,360.00
2024-05-09T04:58:38.911Z,364.00
2024-05-09T04:59:38.952Z,364.00
2024-05-09T05:00:40.155Z,368.00
2024-05-09T05:01:38.862Z,372.00
2024-05-09T05:02:38.901Z,368.00
2024-05-09T05:04:00.013Z,368.00
2024-05-09T05:04:38.831Z,372.00
2024-05-09T05:05:38.880Z,368.00
2024-05-09T05:06:38.742Z,372.00
2024-05-09T05:07:38.721Z,372.00
2024-05-09T05:08:39.440Z,376.00
2024-05-09T05:09:59.678Z,376.00
2024-05-09T05:10:38.684Z,384.00
2024-05-09T05:11:38.692Z,380.00
2024-05-09T05:12:38.618Z,380.00
2024-05-09T05:13:41.458Z,376.00
2024-05-09T05:14:38.631Z,376.00
2024-05-09T05:15:59.536Z,376.00
2024-05-09T05:16:38.554Z,376.00
2024-05-09T05:17:38.771Z,376.00
2024-05-09T05:18:38.517Z,376.00
2024-05-09T05:19:38.935Z,376.00
2024-05-09T05:20:38.550Z,376.00
2024-05-09T05:21:59.404Z,376.00
2024-05-09T05:22:38.391Z,380.00
2024-05-09T05:23:38.577Z,380.00
2024-05-09T05:24:38.344Z,384.00
2024-05-09T05:25:38.349Z,384.00
2024-05-09T05:26:38.834Z,380.00
2024-05-09T05:27:59.303Z,380.00
2024-05-09T05:28:38.269Z,376.00
2024-05-09T05:29:38.380Z,376.00
2024-05-09T05:30:38.266Z,372.00
2024-05-09T05:31:38.318Z,368.00
2024-05-09T05:32:38.379Z,368.00
2024-05-09T05:33:59.246Z,368.00
2024-05-09T05:34:38.144Z,368.00
2024-05-09T05:35:38.165Z,364.00
2024-05-09T05:36:38.126Z,364.00
2024-05-09T05:37:38.065Z,360.00
2024-05-09T05:38:38.120Z,364.00
2024-05-09T05:39:59.037Z,360.00
2024-05-09T05:40:39.149Z,360.00
2024-05-09T05:41:38.050Z,356.00
2024-05-09T05:42:37.998Z,356.00
2024-05-09T05:43:37.980Z,352.00
2024-05-09T05:44:37.983Z,352.00
2024-05-09T05:45:58.913Z,348.00
2024-05-09T05:46:37.881Z,348.00
2024-05-09T05:47:38.017Z,348.00
2024-05-09T05:48:38.011Z,344.00
2024-05-09T05:49:38.125Z,348.00
2024-05-09T05:50:38.726Z,348.00
2024-05-09T05:51:58.790Z,352.00
2024-05-09T05:52:37.774Z,348.00
2024-05-09T05:53:37.859Z,348.00
2024-05-09T05:54:37.730Z,348.00
2024-05-09T05:55:37.812Z,344.00
2024-05-09T05:56:37.736Z,340.00
2024-05-09T05:57:58.677Z,336.00
2024-05-09T05:58:37.635Z,336.00
2024-05-09T05:59:37.622Z,336.00
2024-05-09T06:00:39.735Z,336.00
2024-05-09T06:01:37.639Z,332.00
2024-05-09T06:02:37.703Z,332.00
2024-05-09T06:03:58.704Z,328.00
2024-05-09T06:04:37.560Z,324.00
2024-05-09T06:05:37.685Z,324.00
2024-05-09T06:06:37.496Z,320.00
2024-05-09T06:07:37.455Z,320.00
2024-05-09T06:08:37.470Z,316.00
2024-05-09T06:09:58.412Z,312.00
2024-05-09T06:10:39.986Z,312.00
2024-05-09T06:11:37.491Z,308.00
2024-05-09T06:12:37.370Z,304.00
2024-05-09T06:13:37.334Z,300.00
2024-05-09T06:14:37.322Z,300.00
2024-05-09T06:15:58.290Z,300.00
2024-05-09T06:16:37.290Z,300.00
2024-05-09T06:17:37.417Z,304.00
2024-05-09T06:18:37.418Z,304.00
2024-05-09T06:19:37.307Z,308.00
2024-05-09T06:20:38.395Z,316.00
2024-05-09T06:21:58.171Z,316.00
2024-05-09T06:22:37.143Z,320.00
2024-05-09T06:23:37.208Z,328.00
2024-05-09T06:24:37.138Z,336.00
2024-05-09T06:25:37.142Z,344.00
2024-05-09T06:26:37.116Z,352.00
2024-05-09T06:27:58.067Z,364.00
2024-05-09T06:28:37.043Z,376.00
2024-05-09T06:29:37.043Z,388.00
2024-05-09T06:30:39.935Z,400.00
2024-05-09T06:31:36.954Z,412.00
2024-05-09T06:32:38.008Z,424.00
2024-05-09T06:33:58.087Z,436.00
2024-05-09T06:34:36.970Z,456.00
2024-05-09T06:35:37.179Z,476.00
2024-05-09T06:36:36.864Z,492.00
2024-05-09T06:37:36.835Z,504.00
2024-05-09T06:38:36.961Z,516.00
2024-05-09T06:39:57.869Z,528.00
2024-05-09T06:40:39.253Z,532.00
2024-05-09T06:41:36.860Z,536.00
2024-05-09T06:42:36.736Z,540.00
2024-05-09T06:43:36.704Z,544.00
2024-05-09T06:44:36.747Z,552.00
2024-05-09T06:45:57.679Z,560.00
2024-05-09T06:46:36.671Z,560.00
2024-05-09T06:47:37.513Z,560.00
2024-05-09T06:48:36.763Z,564.00
2024-05-09T06:49:36.633Z,564.00
2024-05-09T06:50:38.340Z,568.00
2024-05-09T06:51:57.557Z,572.00
2024-05-09T06:52:36.520Z,572.00
2024-05-09T06:53:37.446Z,568.00
2024-05-09T06:54:36.498Z,556.00
2024-05-09T06:55:36.570Z,548.00
2024-05-09T06:56:36.493Z,544.00
2024-05-09T06:57:57.436Z,540.00
2024-05-09T06:58:36.397Z,540.00
2024-05-09T06:59:36.542Z,544.00
2024-05-09T07:00:39.670Z,540.00
2024-05-09T07:01:36.392Z,536.00
2024-05-09T07:02:36.394Z,536.00
2024-05-09T07:03:57.420Z,532.00
2024-05-09T07:04:36.361Z,528.00
2024-05-09T07:05:36.320Z,520.00
2024-05-09T07:06:36.256Z,512.00
2024-05-09T07:07:36.250Z,512.00
2024-05-09T07:08:36.296Z,512.00
2024-05-09T07:09:57.203Z,516.00
2024-05-09T07:10:37.021Z,524.00
2024-05-09T07:11:36.187Z,536.00
2024-05-09T07:12:36.852Z,544.00
2024-05-09T07:13:36.104Z,556.00
2024-05-09T07:14:37.997Z,568.00
2024-05-09T07:15:57.055Z,576.00
2024-05-09T07:16:36.071Z,588.00
2024-05-09T07:17:36.193Z,600.00
2024-05-09T07:18:36.250Z,608.00
2024-05-09T07:19:36.115Z,612.00
2024-05-09T07:20:36.001Z,624.00
2024-05-09T07:21:56.939Z,624.00
2024-05-09T07:22:35.954Z,632.00
2024-05-09T07:23:36.039Z,628.00
2024-05-09T07:24:35.884Z,640.00
2024-05-09T07:25:35.862Z,652.00
2024-05-09T07:26:36.023Z,664.00
2024-05-09T07:27:56.855Z,676.00
2024-05-09T07:28:35.796Z,684.00
2024-05-09T07:29:38.537Z,692.00
2024-05-09T07:30:35.773Z,700.00
2024-05-09T07:31:35.770Z,712.00
2024-05-09T07:32:35.859Z,724.00
2024-05-09T07:33:56.764Z,740.00
2024-05-09T07:34:35.872Z,756.00
2024-05-09T07:35:35.962Z,764.00
2024-05-09T07:36:35.659Z,768.00
2024-05-09T07:37:35.647Z,768.00
2024-05-09T07:38:35.669Z,764.00
2024-05-09T07:39:56.594Z,764.00
2024-05-09T07:40:36.903Z,772.00
2024-05-09T07:41:35.586Z,780.00
2024-05-09T07:42:35.528Z,784.00
2024-05-09T07:43:35.529Z,796.00
2024-05-09T07:44:35.713Z,800.00
2024-05-09T07:45:58.395Z,812.00
2024-05-09T07:48:57.644Z,840.00
2024-05-09T07:50:34.428Z,856.00
2024-05-09T07:52:24.021Z,892.00
2024-05-09T07:53:21.830Z,904.00
2024-05-09T07:53:33.232Z,916.00
2024-05-09T07:53:42.681Z,924.00
2024-05-09T07:54:35.423Z,936.00
2024-05-09T07:55:35.413Z,952.00
2024-05-09T07:56:35.451Z,972.00
2024-05-09T07:57:56.277Z,988.00
2024-05-09T07:58:35.232Z,992.00
2024-05-09T07:59:37.623Z,984.00
2024-05-09T08:00:35.209Z,1008.00
2024-05-09T08:01:35.293Z,1024.00
2024-05-09T08:02:35.231Z,1044.00
2024-05-09T08:03:56.347Z,1092.00
2024-05-09T08:04:35.188Z,1140.00
2024-05-09T08:05:35.149Z,1172.00
2024-05-09T08:06:35.118Z,1192.00
2024-05-09T08:07:35.074Z,1204.00
2024-05-09T08:08:35.027Z,1192.00
2024-05-09T08:09:56.078Z,1184.00
2024-05-09T08:10:35.007Z,1180.00
2024-05-09T08:11:35.028Z,1196.00
2024-05-09T08:12:34.974Z,1232.00
2024-05-09T08:13:34.923Z,1268.00
2024-05-09T08:14:34.911Z,1296.00
2024-05-09T08:15:56.051Z,1312.00
2024-05-09T08:16:34.928Z,1320.00
2024-05-09T08:17:34.887Z,1332.00
2024-05-09T08:18:35.181Z,1340.00
2024-05-09T08:19:34.833Z,1336.00
2024-05-09T08:20:35.491Z,1340.00
2024-05-09T08:21:55.883Z,1364.00
2024-05-09T08:22:34.767Z,1416.00
2024-05-09T08:23:34.728Z,1460.00
2024-05-09T08:24:34.770Z,1508.00
2024-05-09T08:25:34.681Z,1568.00
2024-05-09T08:26:34.699Z,1612.00
2024-05-09T08:27:55.812Z,1640.00
2024-05-09T08:28:34.656Z,1676.00
2024-05-09T08:29:34.613Z,1712.00
2024-05-09T08:30:37.263Z,1716.00
2024-05-09T08:31:34.630Z,1652.00
2024-05-09T08:32:34.682Z,1604.00
2024-05-09T08:33:55.711Z,1568.00
2024-05-09T08:34:34.630Z,1568.00
2024-05-09T08:35:34.674Z,1588.00
2024-05-09T08:36:34.527Z,1628.00
2024-05-09T08:37:38.723Z,1668.00
2024-05-09T08:38:34.462Z,1736.00
2024-05-09T08:39:55.622Z,2344.00
2024-05-09T08:40:36.420Z,3308.00
2024-05-09T08:41:34.402Z,3132.00
2024-05-09T08:42:34.384Z,2208.00
2024-05-09T08:43:34.659Z,2068.00
2024-05-09T08:44:34.348Z,1812.00
2024-05-09T08:45:55.375Z,1928.00
2024-05-09T08:46:34.927Z,1952.00
2024-05-09T08:47:34.378Z,1984.00
2024-05-09T08:48:34.500Z,1980.00
2024-05-09T08:49:34.535Z,2124.00
2024-05-09T08:50:38.626Z,2180.00
2024-05-09T08:51:55.284Z,2324.00
2024-05-09T08:52:34.180Z,2840.00
2024-05-09T08:53:34.156Z,3100.00
2024-05-09T08:54:34.209Z,2452.00
2024-05-09T08:55:34.123Z,3360.00
2024-05-09T08:56:34.112Z,3908.00
2024-05-09T08:57:55.199Z,2624.00
2024-05-09T08:58:34.070Z,2432.00
2024-05-09T08:59:34.082Z,4676.00
2024-05-09T09:00:37.174Z,4564.00
2024-05-09T09:01:34.160Z,4744.00
2024-05-09T09:02:34.080Z,4692.00
2024-05-09T09:03:56.109Z,4240.00
2024-05-09T09:04:34.113Z,3404.00
2024-05-09T09:05:34.234Z,2176.00
2024-05-09T09:06:34.067Z,3468.00
2024-05-09T09:07:33.966Z,4252.00
2024-05-09T09:08:33.888Z,3928.00
2024-05-09T09:09:54.932Z,4424.00
2024-05-09T09:10:34.020Z,4376.00
2024-05-09T09:11:33.892Z,4012.00
2024-05-09T09:12:33.842Z,4212.00
2024-05-09T09:13:33.826Z,4284.00
2024-05-09T09:14:33.783Z,4024.00
2024-05-09T09:15:54.874Z,3228.00
2024-05-09T09:16:33.824Z,3940.00
2024-05-09T09:17:33.883Z,3844.00
2024-05-09T09:18:33.905Z,2476.00
2024-05-09T09:19:33.830Z,3428.00
2024-05-09T09:20:36.609Z,4492.00
2024-05-09T09:21:54.851Z,2592.00
2024-05-09T09:22:33.673Z,2488.00
2024-05-09T09:23:33.682Z,2724.00
2024-05-09T09:24:33.698Z,2456.00
2024-05-09T09:25:33.633Z,1872.00
2024-05-09T09:26:33.601Z,1764.00
2024-05-09T09:27:54.811Z,3716.00
2024-05-09T09:28:33.562Z,3364.00
2024-05-09T09:29:33.575Z,3592.00
2024-05-09T09:30:37.324Z,3748.00
2024-05-09T09:31:33.618Z,3732.00
2024-05-09T09:32:33.622Z,3708.00
2024-05-09T09:33:54.718Z,3472.00
2024-05-09T09:34:33.570Z,3700.00
2024-05-09T09:35:33.456Z,3624.00
2024-05-09T09:36:33.530Z,3572.00
2024-05-09T09:37:33.431Z,3520.00
2024-05-09T09:38:33.938Z,3400.00
2024-05-09T09:39:54.460Z,3440.00
2024-05-09T09:40:35.886Z,3424.00
2024-05-09T09:41:33.340Z,3392.00
2024-05-09T09:42:33.387Z,3364.00
2024-05-09T09:43:33.323Z,3344.00
2024-05-09T09:44:34.208Z,3340.00
2024-05-09T09:45:54.317Z,3340.00
2024-05-09T09:46:33.340Z,3312.00
2024-05-09T09:47:33.347Z,3276.00
2024-05-09T09:48:33.425Z,3252.00
2024-05-09T09:49:33.351Z,3220.00
2024-05-09T09:50:34.951Z,3184.00
2024-05-09T09:51:54.224Z,3148.00
2024-05-09T09:52:33.181Z,3136.00
2024-05-09T09:53:33.162Z,3108.00
2024-05-09T09:54:33.226Z,3080.00
2024-05-09T09:55:33.132Z,3052.00
2024-05-09T09:56:33.097Z,3020.00
2024-05-09T09:57:54.175Z,3000.00
2024-05-09T09:58:33.130Z,2976.00
2024-05-09T09:59:33.078Z,2960.00
2024-05-09T10:00:34.017Z,2952.00
2024-05-09T10:01:33.118Z,2764.00
2024-05-09T10:02:33.103Z,2952.00
2024-05-09T10:03:54.223Z,2948.00
2024-05-09T10:04:33.113Z,2920.00
2024-05-09T10:05:33.169Z,2884.00
2024-05-09T10:06:32.965Z,2864.00
2024-05-09T10:07:32.949Z,2852.00
2024-05-09T10:08:32.989Z,2844.00
2024-05-09T10:09:53.973Z,2556.00
2024-05-09T10:10:33.396Z,2932.00
2024-05-09T10:11:37.058Z,2960.00
2024-05-09T10:12:32.954Z,2488.00
2024-05-09T10:13:33.003Z,2844.00
2024-05-09T10:14:33.470Z,2824.00
2024-05-09T10:15:54.260Z,2792.00
2024-05-09T10:16:32.853Z,2656.00
2024-05-09T10:17:32.966Z,2172.00
2024-05-09T10:18:34.263Z,2304.00
2024-05-09T10:19:32.907Z,2724.00
2024-05-09T10:20:33.110Z,2756.00
2024-05-09T10:21:53.747Z,2704.00
2024-05-09T10:22:32.692Z,2704.00
2024-05-09T10:23:33.491Z,2720.00
2024-05-09T10:24:32.680Z,1644.00
2024-05-09T10:25:32.736Z,1364.00
2024-05-09T10:26:32.644Z,2048.00
2024-05-09T10:27:53.692Z,1332.00
2024-05-09T10:28:32.733Z,1000.00
2024-05-09T10:29:32.601Z,980.00
2024-05-09T10:30:36.004Z,1344.00
2024-05-09T10:31:32.633Z,2908.00
2024-05-09T10:32:32.740Z,2824.00
2024-05-09T10:33:53.791Z,2848.00
2024-05-09T10:34:32.648Z,1760.00
2024-05-09T10:35:32.472Z,1024.00
2024-05-09T10:36:32.524Z,1972.00
2024-05-09T10:37:32.597Z,1220.00
2024-05-09T10:38:32.948Z,2112.00
2024-05-09T10:39:53.441Z,2636.00
2024-05-09T10:40:32.565Z,1788.00
2024-05-09T10:41:32.961Z,1884.00
2024-05-09T10:42:32.396Z,2360.00
2024-05-09T10:43:32.373Z,2444.00
2024-05-09T10:44:32.329Z,1160.00
2024-05-09T10:45:53.463Z,1212.00
2024-05-09T10:46:32.325Z,1720.00
2024-05-09T10:47:32.349Z,2940.00
2024-05-09T10:48:32.448Z,2932.00
2024-05-09T10:49:32.340Z,2180.00
2024-05-09T10:50:34.378Z,2968.00
2024-05-09T10:51:53.411Z,3008.00
2024-05-09T10:52:32.225Z,2988.00
2024-05-09T10:53:32.221Z,2936.00
2024-05-09T10:54:32.204Z,2836.00
2024-05-09T10:55:32.201Z,2796.00
2024-05-09T10:56:32.167Z,2744.00
2024-05-09T10:57:53.208Z,2824.00
2024-05-09T10:58:32.116Z,2824.00
2024-05-09T10:59:32.118Z,2568.00
2024-05-09T11:00:35.876Z,2524.00
2024-05-09T11:01:32.300Z,1220.00
2024-05-09T11:02:32.274Z,1008.00
2024-05-09T11:03:53.270Z,1048.00
2024-05-09T11:04:32.057Z,1188.00
2024-05-09T11:05:32.093Z,1768.00
2024-05-09T11:06:32.002Z,1012.00
2024-05-09T11:07:31.997Z,1020.00
2024-05-09T11:08:32.006Z,1044.00
2024-05-09T11:09:52.946Z,1092.00
2024-05-09T11:10:34.219Z,1184.00
2024-05-09T11:11:31.998Z,1580.00
2024-05-09T11:12:32.897Z,2780.00
2024-05-09T11:13:32.154Z,1752.00
2024-05-09T11:14:31.914Z,1996.00
2024-05-09T11:15:52.905Z,1712.00
2024-05-09T11:16:31.860Z,2444.00
2024-05-09T11:17:31.932Z,2540.00
2024-05-09T11:18:35.476Z,928.00
2024-05-09T11:19:31.827Z,676.00
2024-05-09T11:20:34.748Z,680.00
2024-05-09T11:21:52.798Z,1016.00
2024-05-09T11:22:31.788Z,1056.00
2024-05-09T11:23:31.747Z,1308.00
2024-05-09T11:24:31.761Z,2676.00
2024-05-09T11:25:31.680Z,2180.00
2024-05-09T11:26:31.740Z,2392.00
2024-05-09T11:27:52.672Z,2340.00
2024-05-09T11:28:31.665Z,2272.00
2024-05-09T11:29:31.679Z,2228.00
2024-05-09T11:30:32.378Z,2192.00
2024-05-09T11:31:31.795Z,2192.00
2024-05-09T11:32:31.703Z,2236.00
2024-05-09T11:33:52.669Z,2280.00
2024-05-09T11:34:31.640Z,1444.00
2024-05-09T11:35:31.541Z,1584.00
2024-05-09T11:36:31.527Z,1652.00
2024-05-09T11:37:34.031Z,2448.00
2024-05-09T11:38:31.457Z,2372.00
2024-05-09T11:39:52.515Z,788.00
2024-05-09T11:40:34.333Z,728.00
2024-05-09T11:41:31.414Z,704.00
2024-05-09T11:42:31.507Z,688.00
2024-05-09T11:43:31.436Z,672.00
2024-05-09T11:44:31.401Z,812.00
2024-05-09T11:45:52.363Z,2380.00
2024-05-09T11:46:31.412Z,2328.00
2024-05-09T11:47:31.453Z,2288.00
2024-05-09T11:48:32.403Z,2216.00
2024-05-09T11:49:31.411Z,2156.00
2024-05-09T11:50:35.345Z,2100.00
2024-05-09T11:51:52.292Z,2044.00
2024-05-09T11:52:31.287Z,1984.00
2024-05-09T11:53:31.240Z,1976.00
2024-05-09T11:54:32.076Z,1984.00
2024-05-09T11:55:31.232Z,1988.00
2024-05-09T11:56:31.184Z,2000.00
2024-05-09T11:57:52.231Z,2008.00
2024-05-09T11:58:31.131Z,2032.00
2024-05-09T11:59:31.139Z,2060.00
2024-05-09T12:00:36.651Z,2088.00
2024-05-09T12:01:31.257Z,2076.00
2024-05-09T12:02:31.098Z,2136.00
2024-05-09T12:03:52.419Z,2156.00
2024-05-09T12:04:31.202Z,2184.00
2024-05-09T12:05:31.161Z,2224.00
2024-05-09T12:06:31.102Z,2272.00
2024-05-09T12:07:31.054Z,1444.00
2024-05-09T12:08:30.975Z,2124.00
2024-05-09T12:09:52.011Z,2092.00
2024-05-09T12:10:33.954Z,2084.00
2024-05-09T12:11:30.959Z,1496.00
2024-05-09T12:12:30.986Z,2080.00
2024-05-09T12:13:30.979Z,2048.00
2024-05-09T12:14:30.884Z,2008.00
2024-05-09T12:15:51.892Z,1984.00
2024-05-09T12:16:30.960Z,648.00
2024-05-09T12:17:30.970Z,624.00
2024-05-09T12:18:30.927Z,668.00
2024-05-09T12:19:30.858Z,760.00
2024-05-09T12:21:51.851Z,508.00
2024-05-09T12:22:30.765Z,536.00
2024-05-09T12:23:30.763Z,1068.00
2024-05-09T12:24:30.801Z,1136.00
2024-05-09T12:25:30.728Z,1928.00
2024-05-09T12:26:30.700Z,952.00
2024-05-09T12:27:51.682Z,700.00
2024-05-09T12:28:30.722Z,684.00
2024-05-09T12:29:30.668Z,744.00
2024-05-09T12:30:36.676Z,1928.00
2024-05-09T12:31:31.120Z,1416.00
2024-05-09T12:32:30.687Z,1664.00
2024-05-09T12:33:51.761Z,736.00
2024-05-09T12:34:30.616Z,1764.00